createdAt,value
2017-12-31T00:00:27.472Z,44.00
2017-12-31T00:01:27.949Z,44.04
2017-12-31T00:02:28.419Z,44.05
2017-12-31T00:03:28.890Z,44.05
2017-12-31T00:04:29.361Z,44.04
2017-12-31T00:05:29.834Z,44.05
2017-12-31T00:06:30.333Z,44.04
2017-12-31T00:07:30.779Z,44.03
2017-12-31T00:08:31.249Z,44.05
2017-12-31T00:09:31.727Z,44.05
2017-12-31T00:10:32.193Z,44.07
2017-12-31T00:11:32.667Z,44.07
2017-12-31T00:12:33.138Z,44.06
2017-12-31T00:13:33.611Z,44.07
2017-12-31T00:14:34.084Z,44.07
2017-12-31T00:15:34.554Z,44.07
2017-12-31T00:16:35.029Z,44.08
2017-12-31T00:17:35.501Z,44.08
2017-12-31T00:18:35.974Z,44.06
2017-12-31T00:19:36.443Z,44.09
2017-12-31T00:20:36.916Z,44.09
2017-12-31T00:21:37.389Z,44.10
2017-12-31T00:22:37.911Z,44.12
2017-12-31T00:23:38.333Z,44.13
2017-12-31T00:24:38.807Z,44.15
2017-12-31T00:25:39.276Z,44.18
2017-12-31T00:26:39.749Z,44.21
2017-12-31T00:27:40.221Z,44.20
2017-12-31T00:28:40.693Z,44.19
2017-12-31T00:29:41.167Z,44.19
2017-12-31T00:30:41.637Z,44.22
2017-12-31T00:31:42.112Z,44.25
2017-12-31T00:32:42.585Z,44.27
2017-12-31T00:33:43.055Z,44.27
2017-12-31T00:34:43.528Z,44.34
2017-12-31T00:35:44.000Z,44.36
2017-12-31T00:36:44.473Z,44.36
2017-12-31T00:37:44.945Z,44.37
2017-12-31T00:38:45.415Z,44.35
2017-12-31T00:39:45.888Z,44.34
2017-12-31T00:40:46.364Z,44.38
2017-12-31T00:41:46.834Z,44.42
2017-12-31T00:42:47.305Z,44.45
2017-12-31T00:43:47.778Z,44.49
2017-12-31T00:44:48.249Z,44.49
2017-12-31T00:45:48.724Z,44.46
2017-12-31T00:46:49.194Z,44.49
2017-12-31T00:47:49.666Z,44.51
2017-12-31T00:48:50.140Z,44.52
2017-12-31T00:49:50.611Z,44.53
2017-12-31T00:50:51.083Z,44.55
2017-12-31T00:51:51.556Z,44.58
2017-12-31T00:52:52.035Z,44.58
2017-12-31T00:53:52.502Z,44.60
2017-12-31T00:54:52.975Z,44.64
2017-12-31T00:55:53.446Z,44.67
2017-12-31T00:56:53.918Z,44.67
2017-12-31T00:57:54.389Z,44.70
2017-12-31T00:58:54.861Z,44.69
2017-12-31T00:59:55.333Z,44.68
2017-12-31T01:00:55.809Z,44.66
2017-12-31T01:01:56.281Z,44.61
2017-12-31T01:02:56.750Z,44.61
2017-12-31T01:03:57.225Z,44.60
2017-12-31T01:04:57.698Z,44.57
2017-12-31T01:05:58.167Z,44.60
2017-12-31T01:06:58.639Z,44.62
2017-12-31T01:10:00.076Z,44.64
2017-12-31T01:11:00.532Z,44.63
2017-12-31T01:13:01.489Z,44.68
2017-12-31T01:15:02.436Z,44.66
2017-12-31T01:16:02.904Z,44.67
2017-12-31T01:17:03.376Z,44.68
2017-12-31T01:18:03.834Z,44.69
2017-12-31T01:19:04.321Z,44.71
2017-12-31T01:21:05.266Z,44.72
2017-12-31T01:22:05.739Z,44.75
2017-12-31T01:24:06.684Z,44.79
2017-12-31T01:25:07.143Z,44.77
2017-12-31T01:26:07.627Z,44.76
2017-12-31T01:27:08.099Z,44.76
2017-12-31T01:29:09.033Z,44.77
2017-12-31T01:30:09.519Z,44.77
2017-12-31T01:31:09.990Z,44.72
2017-12-31T01:32:10.460Z,44.70
2017-12-31T01:33:10.943Z,44.68
2017-12-31T01:34:11.456Z,44.64
2017-12-31T01:35:11.877Z,44.65
2017-12-31T01:36:12.338Z,44.65
2017-12-31T01:37:12.823Z,44.63
2017-12-31T01:38:13.297Z,44.63
2017-12-31T01:39:13.765Z,44.60
2017-12-31T01:40:14.240Z,44.59
2017-12-31T01:42:15.185Z,44.57
2017-12-31T01:45:16.604Z,44.63
2017-12-31T01:46:17.074Z,44.64
2017-12-31T01:47:17.533Z,44.66
2017-12-31T01:48:18.019Z,44.70
2017-12-31T01:51:19.437Z,44.60
2017-12-31T01:52:19.914Z,44.61
2017-12-31T01:53:20.382Z,44.60
2017-12-31T01:54:20.839Z,44.62
2017-12-31T01:55:21.325Z,44.59
2017-12-31T01:56:21.797Z,44.52
2017-12-31T01:58:22.742Z,44.51
2017-12-31T01:59:23.216Z,44.51
2017-12-31T02:00:23.689Z,44.54
2017-12-31T02:01:24.155Z,44.55
2017-12-31T02:02:24.632Z,44.53
2017-12-31T02:03:25.103Z,44.54
2017-12-31T02:04:25.580Z,44.52
2017-12-31T02:05:26.036Z,44.54
2017-12-31T02:06:26.510Z,44.57
2017-12-31T02:07:26.980Z,44.57
2017-12-31T02:08:27.452Z,44.59
2017-12-31T02:09:27.924Z,44.60
2017-12-31T02:10:28.397Z,44.60
2017-12-31T02:11:28.869Z,44.64
2017-12-31T02:12:29.342Z,44.65
2017-12-31T02:13:29.816Z,44.65
2017-12-31T02:14:30.288Z,44.66
2017-12-31T02:15:30.759Z,44.65
2017-12-31T02:16:31.231Z,44.65
2017-12-31T02:17:31.704Z,44.65
2017-12-31T02:18:32.179Z,44.65
2017-12-31T02:19:32.662Z,44.66
2017-12-31T02:20:33.135Z,44.67
2017-12-31T02:21:33.608Z,44.66
2017-12-31T02:22:34.068Z,44.67
2017-12-31T02:23:34.554Z,44.68
2017-12-31T02:24:35.024Z,44.69
2017-12-31T02:25:47.640Z,44.67
2017-12-31T02:26:35.971Z,44.68
2017-12-31T02:27:36.441Z,44.69
2017-12-31T02:29:37.373Z,44.68
2017-12-31T02:30:37.858Z,44.70
2017-12-31T02:31:38.331Z,44.71
2017-12-31T02:32:38.803Z,44.71
2017-12-31T02:33:39.276Z,44.71
2017-12-31T02:34:39.750Z,44.70
2017-12-31T02:36:40.684Z,44.68
2017-12-31T02:37:41.168Z,44.64
2017-12-31T02:38:41.641Z,44.66
2017-12-31T02:39:42.109Z,44.65
2017-12-31T02:40:42.570Z,44.67
2017-12-31T02:41:43.056Z,44.67
2017-12-31T02:42:43.529Z,44.62
2017-12-31T02:43:44.001Z,44.63
2017-12-31T02:44:44.459Z,44.62
2017-12-31T02:45:44.934Z,44.57
2017-12-31T02:46:45.406Z,44.54
2017-12-31T02:47:45.878Z,44.56
2017-12-31T02:48:46.364Z,44.51
2017-12-31T02:49:46.839Z,44.49
2017-12-31T02:50:47.295Z,44.46
2017-12-31T02:51:47.780Z,44.41
2017-12-31T02:52:48.254Z,44.40
2017-12-31T02:53:48.725Z,44.36
2017-12-31T02:54:49.199Z,44.32
2017-12-31T02:55:49.670Z,44.29
2017-12-31T02:56:50.144Z,44.25
2017-12-31T02:57:50.604Z,44.23
2017-12-31T02:58:51.089Z,44.18
2017-12-31T03:00:52.021Z,44.13
2017-12-31T03:02:52.977Z,44.14
2017-12-31T03:04:53.924Z,44.11
2017-12-31T03:05:54.397Z,44.07
2017-12-31T03:07:55.324Z,44.03
2017-12-31T03:08:55.812Z,44.00
2017-12-31T03:09:56.285Z,43.96
2017-12-31T03:10:56.742Z,43.94
2017-12-31T03:11:57.228Z,43.94
2017-12-31T03:12:57.702Z,43.92
2017-12-31T03:13:58.175Z,43.92
2017-12-31T03:14:58.632Z,43.90
2017-12-31T03:15:59.116Z,43.91
2017-12-31T03:16:59.582Z,43.90
2017-12-31T03:18:00.064Z,43.88
2017-12-31T03:19:00.535Z,43.89
2017-12-31T03:20:01.010Z,43.91
2017-12-31T03:21:01.465Z,43.92
2017-12-31T03:22:01.953Z,43.91
2017-12-31T03:23:02.425Z,43.91
2017-12-31T03:24:02.896Z,43.90
2017-12-31T03:25:03.370Z,43.91
2017-12-31T03:27:04.315Z,43.91
2017-12-31T03:28:04.772Z,43.92
2017-12-31T03:29:05.258Z,43.91
2017-12-31T03:30:05.721Z,43.91
2017-12-31T03:31:06.204Z,43.86
2017-12-31T03:32:06.676Z,43.86
2017-12-31T03:33:07.135Z,43.85
2017-12-31T03:34:07.621Z,43.85
2017-12-31T03:35:08.094Z,43.83
2017-12-31T03:36:08.565Z,43.80
2017-12-31T03:37:09.039Z,43.81
2017-12-31T03:38:21.641Z,43.84
2017-12-31T03:39:09.983Z,43.86
2017-12-31T03:40:10.456Z,43.84
2017-12-31T03:41:10.926Z,43.83
2017-12-31T03:42:11.401Z,43.81
2017-12-31T03:43:11.872Z,43.81
2017-12-31T03:46:13.289Z,43.78
2017-12-31T03:47:13.747Z,43.77
2017-12-31T03:48:14.233Z,43.80
2017-12-31T03:49:14.707Z,43.82
2017-12-31T03:50:15.179Z,43.79
2017-12-31T03:51:15.637Z,43.79
2017-12-31T03:52:16.122Z,43.75
2017-12-31T03:53:16.595Z,43.72
2017-12-31T03:54:17.068Z,43.76
2017-12-31T03:55:17.540Z,43.73
2017-12-31T03:56:18.014Z,43.77
2017-12-31T03:57:18.486Z,43.78
2017-12-31T03:58:18.942Z,43.79
2017-12-31T03:59:19.433Z,43.82
2017-12-31T04:00:19.900Z,43.81
2017-12-31T04:01:20.372Z,43.81
2017-12-31T04:02:20.831Z,43.83
2017-12-31T04:03:21.317Z,43.83
2017-12-31T04:04:21.791Z,43.82
2017-12-31T04:05:22.263Z,43.83
2017-12-31T04:06:22.734Z,43.81
2017-12-31T04:07:23.205Z,43.82
2017-12-31T04:08:23.678Z,43.82
2017-12-31T04:09:24.137Z,43.82
2017-12-31T04:10:24.623Z,43.83
2017-12-31T04:11:25.097Z,43.84
2017-12-31T04:14:26.513Z,43.84
2017-12-31T04:16:27.458Z,43.84
2017-12-31T04:17:27.930Z,43.85
2017-12-31T04:18:28.402Z,43.86
2017-12-31T04:20:29.345Z,43.84
2017-12-31T04:21:29.819Z,43.85
2017-12-31T04:22:30.291Z,43.85
2017-12-31T04:23:30.749Z,43.85
2017-12-31T04:24:31.236Z,43.87
2017-12-31T04:25:31.711Z,43.88
2017-12-31T04:26:32.182Z,43.87
2017-12-31T04:27:32.639Z,43.88
2017-12-31T04:28:33.124Z,43.91
2017-12-31T04:30:34.069Z,43.94
2017-12-31T04:31:34.527Z,43.95
2017-12-31T04:32:35.071Z,43.97
2017-12-31T04:33:35.489Z,44.02
2017-12-31T04:34:35.959Z,44.02
2017-12-31T04:35:36.433Z,44.04
2017-12-31T04:36:36.902Z,44.03
2017-12-31T04:38:37.846Z,44.07
2017-12-31T04:39:38.318Z,44.10
2017-12-31T04:40:38.789Z,44.13
2017-12-31T04:41:39.263Z,44.15
2017-12-31T04:42:39.721Z,44.16
2017-12-31T04:43:40.261Z,44.15
2017-12-31T04:44:40.682Z,44.17
2017-12-31T04:45:41.151Z,44.17
2017-12-31T04:46:41.624Z,44.16
2017-12-31T04:47:42.095Z,44.17
2017-12-31T04:48:42.566Z,44.16
2017-12-31T04:49:43.025Z,44.17
2017-12-31T04:50:43.512Z,44.18
2017-12-31T04:51:43.984Z,44.20
2017-12-31T04:52:44.454Z,44.24
2017-12-31T04:53:56.770Z,44.24
2017-12-31T04:54:45.400Z,44.24
2017-12-31T04:55:45.870Z,44.24
2017-12-31T04:56:46.345Z,44.25
2017-12-31T04:57:46.813Z,44.24
2017-12-31T04:58:47.275Z,44.24
2017-12-31T04:59:47.759Z,44.23
2017-12-31T05:00:48.230Z,44.24
2017-12-31T05:01:48.703Z,44.19
2017-12-31T05:02:49.160Z,44.15
2017-12-31T05:03:49.650Z,44.13
2017-12-31T05:04:50.121Z,44.14
2017-12-31T05:05:50.589Z,44.14
2017-12-31T05:06:51.064Z,44.17
2017-12-31T05:07:51.534Z,44.16
2017-12-31T05:08:51.997Z,44.13
2017-12-31T05:09:52.480Z,44.14
2017-12-31T05:10:52.954Z,44.14
2017-12-31T05:11:53.408Z,44.12
2017-12-31T05:12:53.894Z,44.13
2017-12-31T05:13:54.368Z,44.13
2017-12-31T05:14:54.839Z,44.10
2017-12-31T05:15:55.312Z,44.09
2017-12-31T05:16:55.783Z,44.08
2017-12-31T05:17:56.254Z,44.08
2017-12-31T05:18:56.713Z,44.09
2017-12-31T05:19:57.202Z,44.10
2017-12-31T05:20:57.668Z,44.14
2017-12-31T05:21:58.143Z,44.15
2017-12-31T05:22:58.601Z,44.19
2017-12-31T05:24:10.760Z,44.21
2017-12-31T05:24:59.560Z,44.24
2017-12-31T05:26:00.032Z,44.23
2017-12-31T05:27:00.502Z,44.25
2017-12-31T05:28:00.963Z,44.27
2017-12-31T05:29:01.446Z,44.34
2017-12-31T05:30:01.917Z,44.35
2017-12-31T05:31:02.389Z,44.37
2017-12-31T05:32:02.862Z,44.37
2017-12-31T05:33:03.334Z,44.36
2017-12-31T05:34:03.806Z,44.39
2017-12-31T05:35:04.276Z,44.42
2017-12-31T05:37:05.219Z,44.44
2017-12-31T05:38:05.681Z,44.43
2017-12-31T05:39:06.167Z,44.44
2017-12-31T05:40:06.637Z,44.46
2017-12-31T05:41:07.108Z,44.43
2017-12-31T05:42:07.568Z,44.43
2017-12-31T05:43:08.056Z,44.43
2017-12-31T05:44:08.512Z,44.40
2017-12-31T05:45:08.997Z,44.38
2017-12-31T05:46:09.470Z,44.42
2017-12-31T05:47:09.941Z,44.46
2017-12-31T05:48:10.402Z,44.51
2017-12-31T05:49:10.884Z,44.48
2017-12-31T05:50:11.356Z,44.47
2017-12-31T05:52:12.302Z,44.44
2017-12-31T05:53:12.771Z,44.44
2017-12-31T05:54:13.244Z,44.43
2017-12-31T05:55:13.702Z,44.42
2017-12-31T05:56:14.193Z,44.42
2017-12-31T05:57:14.660Z,44.41
2017-12-31T05:58:15.132Z,44.41
2017-12-31T05:59:15.604Z,44.40
2017-12-31T06:00:16.078Z,44.45
2017-12-31T06:01:16.549Z,44.43
2017-12-31T06:02:17.006Z,44.44
2017-12-31T06:03:17.491Z,44.41
2017-12-31T06:04:29.805Z,44.39
2017-12-31T06:05:18.435Z,44.39
2017-12-31T06:06:18.893Z,44.40
2017-12-31T06:07:19.383Z,44.37
2017-12-31T06:08:19.852Z,44.35
2017-12-31T06:09:20.324Z,44.33
2017-12-31T06:10:20.798Z,44.31
2017-12-31T06:11:21.268Z,44.29
2017-12-31T06:12:21.739Z,44.27
2017-12-31T06:13:22.201Z,44.27
2017-12-31T06:14:22.734Z,44.30
2017-12-31T06:15:23.156Z,44.32
2017-12-31T06:16:23.627Z,44.32
2017-12-31T06:17:24.100Z,44.31
2017-12-31T06:18:24.571Z,44.33
2017-12-31T06:19:25.095Z,44.31
2017-12-31T06:20:25.516Z,44.31
2017-12-31T06:21:25.986Z,44.29
2017-12-31T06:22:26.459Z,44.26
2017-12-31T06:23:26.934Z,44.25
2017-12-31T06:24:27.390Z,44.21
2017-12-31T06:25:27.877Z,44.18
2017-12-31T06:26:28.347Z,44.17
2017-12-31T06:27:28.810Z,44.17
2017-12-31T06:28:29.292Z,44.17
2017-12-31T06:29:29.765Z,44.16
2017-12-31T06:30:30.236Z,44.14
2017-12-31T06:31:30.695Z,44.13
2017-12-31T06:32:31.182Z,44.17
2017-12-31T06:33:31.653Z,44.16
2017-12-31T06:34:32.123Z,44.15
2017-12-31T06:35:32.595Z,44.13
2017-12-31T06:36:33.068Z,44.15
2017-12-31T06:37:33.526Z,44.14
2017-12-31T06:38:34.012Z,44.15
2017-12-31T06:39:34.487Z,44.19
2017-12-31T06:40:34.955Z,44.20
2017-12-31T06:41:35.429Z,44.20
2017-12-31T06:42:35.899Z,44.18
2017-12-31T06:43:36.375Z,44.17
2017-12-31T06:45:37.314Z,44.14
2017-12-31T06:46:37.788Z,44.16
2017-12-31T06:47:38.267Z,44.16
2017-12-31T06:48:38.718Z,44.20
2017-12-31T06:49:39.203Z,44.20
2017-12-31T06:50:39.674Z,44.20
2017-12-31T06:51:40.149Z,44.20
2017-12-31T06:52:40.604Z,44.20
2017-12-31T06:53:41.092Z,44.18
2017-12-31T06:54:41.566Z,44.16
2017-12-31T06:56:42.507Z,44.20
2017-12-31T06:57:42.978Z,44.20
2017-12-31T06:59:43.908Z,44.19
2017-12-31T07:00:44.396Z,44.17
2017-12-31T07:01:44.868Z,44.16
2017-12-31T07:02:45.341Z,44.14
2017-12-31T07:03:45.813Z,44.12
2017-12-31T07:04:46.268Z,44.13
2017-12-31T07:05:46.753Z,44.14
2017-12-31T07:06:47.227Z,44.13
2017-12-31T07:07:47.698Z,44.16
2017-12-31T07:08:48.170Z,44.15
2017-12-31T07:09:48.643Z,44.15
2017-12-31T07:10:49.121Z,44.16
2017-12-31T07:11:49.588Z,44.19
2017-12-31T07:12:50.061Z,44.20
2017-12-31T07:13:50.529Z,44.22
2017-12-31T07:14:51.003Z,44.19
2017-12-31T07:15:51.476Z,44.21
2017-12-31T07:16:51.947Z,44.21
2017-12-31T07:17:52.405Z,44.19
2017-12-31T07:18:52.892Z,44.19
2017-12-31T07:19:53.364Z,44.20
2017-12-31T07:22:54.779Z,44.15
2017-12-31T07:23:55.252Z,44.16
2017-12-31T07:24:55.725Z,44.13
2017-12-31T07:25:56.181Z,44.12
2017-12-31T07:26:56.668Z,44.11
2017-12-31T07:27:57.140Z,44.13
2017-12-31T07:28:57.614Z,44.11
2017-12-31T07:29:58.070Z,44.12
2017-12-31T07:30:58.543Z,44.12
2017-12-31T07:31:59.030Z,44.12
2017-12-31T07:32:59.504Z,44.14
2017-12-31T07:33:59.976Z,44.14
2017-12-31T07:35:00.432Z,44.17
2017-12-31T07:37:01.392Z,44.18
2017-12-31T07:38:01.864Z,44.21
2017-12-31T07:39:02.325Z,44.22
2017-12-31T07:40:02.813Z,44.23
2017-12-31T07:41:03.283Z,44.24
2017-12-31T07:42:03.759Z,44.25
2017-12-31T07:43:04.228Z,44.25
2017-12-31T07:44:04.702Z,44.27
2017-12-31T07:45:05.175Z,44.26
2017-12-31T07:46:05.645Z,44.27
2017-12-31T07:47:06.120Z,44.29
2017-12-31T07:48:06.593Z,44.24
2017-12-31T07:49:07.066Z,44.24
2017-12-31T07:51:08.014Z,44.20
2017-12-31T07:52:08.471Z,44.19
2017-12-31T07:53:08.961Z,44.19
2017-12-31T07:54:09.430Z,44.15
2017-12-31T07:56:10.376Z,44.14
2017-12-31T07:57:10.851Z,44.11
2017-12-31T07:58:11.324Z,44.12
2017-12-31T07:59:11.800Z,44.11
2017-12-31T08:00:12.323Z,44.12
2017-12-31T08:01:12.730Z,44.11
2017-12-31T08:02:13.202Z,44.11
2017-12-31T08:03:13.692Z,44.08
2017-12-31T08:04:14.168Z,44.08
2017-12-31T08:05:14.641Z,44.07
2017-12-31T08:06:15.110Z,44.05
2017-12-31T08:07:15.586Z,44.05
2017-12-31T08:09:16.522Z,44.01
2017-12-31T08:10:17.014Z,43.99
2017-12-31T08:11:17.481Z,43.99
2017-12-31T08:12:17.954Z,43.97
2017-12-31T08:13:18.415Z,43.98
2017-12-31T08:14:18.901Z,43.96
2017-12-31T08:15:19.375Z,43.96
2017-12-31T08:16:19.850Z,43.97
2017-12-31T08:17:20.325Z,43.96
2017-12-31T08:18:20.797Z,43.95
2017-12-31T08:19:21.271Z,43.94
2017-12-31T08:20:21.731Z,43.93
2017-12-31T08:21:22.220Z,43.90
2017-12-31T08:22:22.693Z,43.88
2017-12-31T08:23:23.167Z,43.88
2017-12-31T08:24:23.637Z,43.86
2017-12-31T08:25:24.118Z,43.85
2017-12-31T08:26:24.591Z,43.84
2017-12-31T08:28:25.526Z,43.78
2017-12-31T08:29:26.019Z,43.78
2017-12-31T08:30:26.495Z,43.77
2017-12-31T08:31:26.963Z,43.78
2017-12-31T08:32:27.437Z,43.78
2017-12-31T08:33:27.912Z,43.79
2017-12-31T08:34:28.385Z,43.79
2017-12-31T08:35:28.858Z,43.82
2017-12-31T08:36:29.336Z,43.81
2017-12-31T08:37:29.809Z,43.80
2017-12-31T08:38:30.285Z,43.78
2017-12-31T08:39:30.758Z,43.78
2017-12-31T08:40:31.234Z,43.75
2017-12-31T08:41:31.710Z,43.78
2017-12-31T08:42:32.184Z,43.77
2017-12-31T08:43:32.645Z,43.77
2017-12-31T08:44:33.133Z,43.76
2017-12-31T08:45:44.942Z,43.75
2017-12-31T08:46:34.084Z,43.76
2017-12-31T08:47:34.555Z,43.75
2017-12-31T08:48:35.035Z,43.75
2017-12-31T08:49:35.510Z,43.74
2017-12-31T08:50:35.983Z,43.73
2017-12-31T08:51:36.459Z,43.72
2017-12-31T08:52:36.936Z,43.69
2017-12-31T08:53:37.397Z,43.71
2017-12-31T08:54:37.886Z,43.68
2017-12-31T08:57:39.297Z,43.63
2017-12-31T08:58:39.787Z,43.60
2017-12-31T08:59:40.261Z,43.58
2017-12-31T09:00:40.740Z,43.59
2017-12-31T09:01:41.215Z,43.59
2017-12-31T09:02:41.689Z,43.58
2017-12-31T09:03:42.166Z,43.60
2017-12-31T09:04:42.626Z,43.60
2017-12-31T09:05:43.119Z,43.60
2017-12-31T09:07:44.066Z,43.60
2017-12-31T09:08:44.544Z,43.58
2017-12-31T09:09:45.019Z,43.57
2017-12-31T09:11:45.969Z,43.54
2017-12-31T09:12:46.446Z,43.54
2017-12-31T09:14:47.382Z,43.50
2017-12-31T09:15:47.872Z,43.50
2017-12-31T09:16:48.349Z,43.51
2017-12-31T09:19:49.777Z,43.54
2017-12-31T09:20:50.254Z,43.53
2017-12-31T09:21:50.728Z,43.48
2017-12-31T09:22:51.210Z,43.43
2017-12-31T09:23:51.669Z,43.45
2017-12-31T09:25:52.637Z,43.46
2017-12-31T09:28:54.064Z,43.39
2017-12-31T09:29:54.542Z,43.38
2017-12-31T09:30:55.002Z,43.36
2017-12-31T09:31:55.493Z,43.35
2017-12-31T09:32:55.970Z,43.33
2017-12-31T09:33:56.449Z,43.29
2017-12-31T09:34:56.909Z,43.29
2017-12-31T09:36:57.877Z,43.24
2017-12-31T09:37:58.354Z,43.22
2017-12-31T09:38:58.830Z,43.20
2017-12-31T09:39:59.306Z,43.17
2017-12-31T09:40:59.785Z,43.16
2017-12-31T09:42:00.250Z,43.15
2017-12-31T09:43:00.738Z,43.13
2017-12-31T09:44:01.216Z,43.13
2017-12-31T09:47:02.645Z,43.03
2017-12-31T09:49:03.589Z,43.00
2017-12-31T09:50:04.077Z,43.00
2017-12-31T09:51:04.555Z,42.99
2017-12-31T09:52:05.030Z,43.05
2017-12-31T09:53:05.494Z,43.12
2017-12-31T09:54:05.986Z,43.19
2017-12-31T09:55:06.465Z,43.33
2017-12-31T09:56:06.940Z,43.46
2017-12-31T09:57:07.419Z,43.63
2017-12-31T09:58:07.893Z,43.82
2017-12-31T09:59:08.356Z,44.01
2017-12-31T10:00:08.846Z,44.23
2017-12-31T10:01:09.322Z,44.43
2017-12-31T10:02:09.797Z,44.64
2017-12-31T10:03:10.260Z,44.87
2017-12-31T10:05:11.224Z,45.31
2017-12-31T10:06:11.698Z,45.53
2017-12-31T10:07:12.158Z,45.76
2017-12-31T10:08:12.648Z,46.02
2017-12-31T10:09:13.121Z,46.29
2017-12-31T10:10:13.596Z,46.56
2017-12-31T10:11:14.071Z,46.81
2017-12-31T10:12:14.543Z,47.01
2017-12-31T10:13:15.021Z,47.20
2017-12-31T10:14:15.479Z,47.35
2017-12-31T10:15:15.967Z,47.51
2017-12-31T10:16:16.436Z,47.67
2017-12-31T10:17:16.912Z,47.79
2017-12-31T10:18:17.370Z,47.85
2017-12-31T10:19:17.855Z,47.89
2017-12-31T10:20:18.335Z,47.90
2017-12-31T10:21:18.804Z,47.90
2017-12-31T10:22:19.262Z,47.89
2017-12-31T10:23:19.746Z,47.85
2017-12-31T10:24:32.008Z,47.76
2017-12-31T10:25:20.692Z,47.68
2017-12-31T10:26:21.166Z,47.59
2017-12-31T10:27:21.638Z,47.52
2017-12-31T10:28:22.112Z,47.49
2017-12-31T10:29:22.571Z,47.43
2017-12-31T10:30:23.056Z,47.38
2017-12-31T10:31:23.528Z,47.33
2017-12-31T10:32:24.001Z,47.29
2017-12-31T10:33:24.475Z,47.28
2017-12-31T10:34:37.042Z,47.21
2017-12-31T10:35:25.423Z,47.09
2017-12-31T10:36:25.879Z,47.01
2017-12-31T10:37:26.366Z,47.01
2017-12-31T10:39:27.314Z,46.86
2017-12-31T10:40:27.787Z,46.76
2017-12-31T10:41:28.260Z,46.66
2017-12-31T10:43:29.193Z,46.39
2017-12-31T10:44:29.668Z,46.26
2017-12-31T10:46:30.630Z,46.02
2017-12-31T10:47:31.104Z,45.96
2017-12-31T10:48:31.580Z,45.87
2017-12-31T10:49:32.105Z,45.79
2017-12-31T10:50:32.526Z,45.70
2017-12-31T10:51:32.990Z,45.66
2017-12-31T10:52:33.476Z,45.60
2017-12-31T10:53:33.954Z,45.58
2017-12-31T10:54:34.425Z,45.54
2017-12-31T10:55:34.903Z,45.45
2017-12-31T10:56:35.381Z,45.39
2017-12-31T10:58:36.312Z,45.33
2017-12-31T10:59:49.034Z,45.29
2017-12-31T11:00:37.276Z,45.26
2017-12-31T11:01:37.749Z,45.25
2017-12-31T11:02:38.226Z,45.18
2017-12-31T11:03:38.701Z,45.05
2017-12-31T11:05:39.638Z,44.97
2017-12-31T11:06:40.128Z,44.90
2017-12-31T11:07:40.612Z,44.84
2017-12-31T11:08:41.078Z,44.84
2017-12-31T11:09:41.555Z,44.84
2017-12-31T11:10:42.031Z,44.79
2017-12-31T11:11:42.505Z,44.75
2017-12-31T11:12:42.970Z,44.72
2017-12-31T11:13:43.457Z,44.67
2017-12-31T11:14:43.945Z,44.60
2017-12-31T11:15:44.412Z,44.59
2017-12-31T11:16:44.887Z,44.60
2017-12-31T11:17:45.349Z,44.49
2017-12-31T11:18:45.839Z,44.47
2017-12-31T11:19:46.315Z,44.43
2017-12-31T11:21:47.256Z,44.38
2017-12-31T11:22:47.745Z,44.37
2017-12-31T11:23:48.221Z,44.33
2017-12-31T11:25:49.175Z,44.30
2017-12-31T11:26:49.652Z,44.25
2017-12-31T11:27:50.170Z,44.21
2017-12-31T11:28:50.592Z,44.19
2017-12-31T11:30:51.562Z,44.12
2017-12-31T11:31:52.034Z,44.09
2017-12-31T11:33:52.988Z,44.06
2017-12-31T11:34:53.516Z,44.07
2017-12-31T11:36:54.418Z,43.96
2017-12-31T11:37:54.882Z,43.90
2017-12-31T11:38:55.373Z,43.92
2017-12-31T11:41:08.069Z,43.96
2017-12-31T11:41:56.809Z,44.01
2017-12-31T11:42:57.285Z,44.12
2017-12-31T11:44:58.279Z,44.36
2017-12-31T11:45:58.712Z,44.53
2017-12-31T11:46:59.192Z,44.73
2017-12-31T11:49:00.142Z,45.12
2017-12-31T11:50:00.605Z,45.25
2017-12-31T11:51:01.094Z,45.37
2017-12-31T11:52:01.568Z,45.56
2017-12-31T11:53:02.043Z,45.78
2017-12-31T11:54:02.519Z,46.00
2017-12-31T11:55:02.994Z,46.20
2017-12-31T11:56:03.469Z,46.39
2017-12-31T11:57:03.929Z,46.61
2017-12-31T11:58:04.420Z,46.89
2017-12-31T11:59:04.893Z,47.11
2017-12-31T12:00:05.367Z,47.30
2017-12-31T12:01:05.825Z,47.54
2017-12-31T12:02:06.313Z,47.82
2017-12-31T12:03:06.788Z,47.98
2017-12-31T12:04:07.261Z,48.03
2017-12-31T12:05:07.732Z,48.13
2017-12-31T12:06:08.208Z,48.21
2017-12-31T12:07:08.680Z,48.20
2017-12-31T12:08:09.136Z,48.14
2017-12-31T12:09:09.623Z,48.13
2017-12-31T12:10:10.097Z,48.14
2017-12-31T12:11:10.569Z,48.19
2017-12-31T12:12:11.041Z,48.13
2017-12-31T12:13:11.518Z,48.08
2017-12-31T12:15:12.459Z,47.94
2017-12-31T12:16:12.930Z,47.88
2017-12-31T12:17:13.404Z,47.78
2017-12-31T12:18:13.877Z,47.68
2017-12-31T12:19:14.351Z,47.61
2017-12-31T12:21:15.281Z,47.46
2017-12-31T12:22:15.770Z,47.43
2017-12-31T12:23:16.240Z,47.35
2017-12-31T12:24:16.713Z,47.31
2017-12-31T12:25:17.188Z,47.21
2017-12-31T12:26:29.145Z,47.09
2017-12-31T12:27:18.135Z,47.02
2017-12-31T12:29:19.066Z,46.85
2017-12-31T12:30:19.554Z,46.71
2017-12-31T12:32:20.502Z,46.57
2017-12-31T12:33:20.959Z,46.51
2017-12-31T12:34:21.450Z,46.44
2017-12-31T12:35:21.922Z,46.30
2017-12-31T12:36:22.396Z,46.24
2017-12-31T12:38:23.332Z,46.11
2017-12-31T12:39:23.819Z,46.05
2017-12-31T12:40:24.292Z,45.99
2017-12-31T12:41:24.767Z,45.89
2017-12-31T12:42:25.241Z,45.82
2017-12-31T12:43:25.718Z,45.74
2017-12-31T12:44:26.190Z,45.70
2017-12-31T12:45:26.651Z,45.66
2017-12-31T12:46:27.140Z,45.63
2017-12-31T12:47:27.616Z,45.58
2017-12-31T12:48:28.088Z,45.55
2017-12-31T12:49:28.564Z,45.46
2017-12-31T12:51:29.504Z,45.33
2017-12-31T12:52:29.991Z,45.24
2017-12-31T12:53:30.465Z,45.21
2017-12-31T12:54:30.940Z,45.19
2017-12-31T12:55:31.401Z,45.16
2017-12-31T12:56:31.892Z,45.09
2017-12-31T12:57:32.371Z,45.04
2017-12-31T12:58:32.844Z,44.94
2017-12-31T12:59:33.328Z,44.89
2017-12-31T13:00:33.792Z,44.92
2017-12-31T13:01:34.272Z,44.83
2017-12-31T13:02:34.732Z,44.76
2017-12-31T13:03:35.219Z,44.67
2017-12-31T13:05:36.175Z,44.53
2017-12-31T13:06:36.651Z,44.49
2017-12-31T13:07:37.115Z,44.42
2017-12-31T13:08:37.602Z,44.40
2017-12-31T13:09:38.070Z,44.37
2017-12-31T13:10:38.558Z,44.37
2017-12-31T13:11:39.027Z,44.32
2017-12-31T13:12:39.506Z,44.26
2017-12-31T13:13:39.970Z,44.22
2017-12-31T13:14:40.461Z,44.20
2017-12-31T13:15:40.939Z,44.17
2017-12-31T13:16:41.412Z,44.10
2017-12-31T13:17:41.889Z,44.08
2017-12-31T13:18:42.364Z,44.03
2017-12-31T13:19:42.841Z,44.04
2017-12-31T13:20:43.305Z,44.05
2017-12-31T13:21:43.795Z,44.03
2017-12-31T13:22:44.257Z,44.00
2017-12-31T13:23:44.752Z,43.97
2017-12-31T13:24:45.225Z,43.92
2017-12-31T13:25:45.700Z,43.90
2017-12-31T13:26:46.229Z,43.90
2017-12-31T13:27:46.656Z,43.96
2017-12-31T13:28:47.131Z,43.99
2017-12-31T13:29:47.594Z,44.04
2017-12-31T13:30:48.085Z,44.17
2017-12-31T13:31:48.561Z,44.31
2017-12-31T13:32:49.036Z,44.46
2017-12-31T13:33:49.514Z,44.64
2017-12-31T13:34:49.989Z,44.84
2017-12-31T13:35:50.465Z,45.02
2017-12-31T13:36:50.990Z,45.23
2017-12-31T13:37:51.419Z,45.42
2017-12-31T13:38:51.889Z,45.63
2017-12-31T13:39:52.364Z,45.83
2017-12-31T13:40:52.826Z,46.03
